sensor_id;sensor_type;location;lat;lon;timestamp;P1;durP1;ratioP1;P2;durP2;ratioP2
9712;SDS011;4895;50.926;6.870;2023-07-28T00:01:46;3.60;;;2.00;;
9712;SDS011;4895;50.926;6.870;2023-07-28T00:04:11;4.10;;;2.13;;
9712;SDS011;4895;50.926;6.870;2023-07-28T00:06:36;3.60;;;1.90;;
9712;SDS011;4895;50.926;6.870;2023-07-28T00:09:02;4.17;;;2.53;;
9712;SDS011;4895;50.926;6.870;2023-07-28T00:11:27;4.27;;;2.50;;
9712;SDS011;4895;50.926;6.870;2023-07-28T00:13:52;4.90;;;2.13;;
9712;SDS011;4895;50.926;6.870;2023-07-28T00:16:18;2.93;;;2.20;;
9712;SDS011;4895;50.926;6.870;2023-07-28T00:18:43;5.40;;;2.63;;
9712;SDS011;4895;50.926;6.870;2023-07-28T00:21:09;3.30;;;2.10;;
9712;SDS011;4895;50.926;6.870;2023-07-28T00:23:34;4.60;;;2.13;;
9712;SDS011;4895;50.926;6.870;2023-07-28T00:25:59;9.80;;;2.43;;
9712;SDS011;4895;50.926;6.870;2023-07-28T00:28:24;5.83;;;2.50;;
9712;SDS011;4895;50.926;6.870;2023-07-28T00:30:50;6.67;;;2.67;;
9712;SDS011;4895;50.926;6.870;2023-07-28T00:33:15;3.70;;;2.33;;
9712;SDS011;4895;50.926;6.870;2023-07-28T00:35:41;4.70;;;2.30;;
9712;SDS011;4895;50.926;6.870;2023-07-28T00:38:06;5.23;;;2.50;;
9712;SDS011;4895;50.926;6.870;2023-07-28T00:40:31;6.23;;;2.43;;
9712;SDS011;4895;50.926;6.870;2023-07-28T00:42:57;3.20;;;2.17;;
9712;SDS011;4895;50.926;6.870;2023-07-28T00:45:22;6.60;;;2.20;;
9712;SDS011;4895;50.926;6.870;2023-07-28T00:47:47;3.97;;;2.20;;
9712;SDS011;4895;50.926;6.870;2023-07-28T00:50:13;4.07;;;2.00;;
9712;SDS011;4895;50.926;6.870;2023-07-28T00:52:38;3.20;;;1.83;;
9712;SDS011;4895;50.926;6.870;2023-07-28T00:55:05;8.60;;;1.83;;
9712;SDS011;4895;50.926;6.870;2023-07-28T00:57:31;2.40;;;1.73;;
9712;SDS011;4895;50.926;6.870;2023-07-28T00:59:56;3.87;;;1.50;;
9712;SDS011;4895;50.926;6.870;2023-07-28T01:02:21;3.30;;;1.50;;
9712;SDS011;4895;50.926;6.870;2023-07-28T01:04:47;1.90;;;1.30;;
9712;SDS011;4895;50.926;6.870;2023-07-28T01:07:14;3.30;;;1.60;;
9712;SDS011;4895;50.926;6.870;2023-07-28T01:09:52;2.20;;;1.40;;
9712;SDS011;4895;50.926;6.870;2023-07-28T01:12:26;4.47;;;1.40;;
9712;SDS011;4895;50.926;6.870;2023-07-28T01:14:51;4.27;;;1.30;;
9712;SDS011;4895;50.926;6.870;2023-07-28T01:17:16;3.73;;;1.30;;
9712;SDS011;4895;50.926;6.870;2023-07-28T01:19:43;6.10;;;1.73;;
9712;SDS011;4895;50.926;6.870;2023-07-28T01:25:18;3.77;;;1.30;;
9712;SDS011;4895;50.926;6.870;2023-07-28T01:27:48;3.60;;;1.50;;
9712;SDS011;4895;50.926;6.870;2023-07-28T01:30:14;2.40;;;1.30;;
9712;SDS011;4895;50.926;6.870;2023-07-28T01:32:40;1.87;;;1.43;;
9712;SDS011;4895;50.926;6.870;2023-07-28T01:35:05;2.70;;;1.20;;
9712;SDS011;4895;50.926;6.870;2023-07-28T01:37:31;3.57;;;1.50;;
9712;SDS011;4895;50.926;6.870;2023-07-28T01:39:56;1.30;;;1.00;;
9712;SDS011;4895;50.926;6.870;2023-07-28T01:42:22;4.37;;;1.13;;
9712;SDS011;4895;50.926;6.870;2023-07-28T01:44:48;4.00;;;1.37;;
9712;SDS011;4895;50.926;6.870;2023-07-28T01:47:14;6.60;;;1.30;;
9712;SDS011;4895;50.926;6.870;2023-07-28T01:49:39;5.13;;;1.30;;
9712;SDS011;4895;50.926;6.870;2023-07-28T01:52:04;6.13;;;1.20;;
9712;SDS011;4895;50.926;6.870;2023-07-28T01:54:30;3.57;;;1.07;;
9712;SDS011;4895;50.926;6.870;2023-07-28T01:56:55;1.70;;;1.00;;
9712;SDS011;4895;50.926;6.870;2023-07-28T01:59:20;4.00;;;1.13;;
9712;SDS011;4895;50.926;6.870;2023-07-28T02:07:43;3.80;;;1.60;;
9712;SDS011;4895;50.926;6.870;2023-07-28T02:10:08;2.50;;;1.00;;
9712;SDS011;4895;50.926;6.870;2023-07-28T02:12:35;1.60;;;1.17;;
9712;SDS011;4895;50.926;6.870;2023-07-28T02:15:01;1.83;;;1.10;;
9712;SDS011;4895;50.926;6.870;2023-07-28T02:17:26;3.47;;;1.30;;
9712;SDS011;4895;50.926;6.870;2023-07-28T02:19:51;1.47;;;1.10;;
9712;SDS011;4895;50.926;6.870;2023-07-28T02:22:16;5.50;;;1.30;;
9712;SDS011;4895;50.926;6.870;2023-07-28T02:24:42;3.20;;;1.20;;
9712;SDS011;4895;50.926;6.870;2023-07-28T02:27:07;1.93;;;1.23;;
9712;SDS011;4895;50.926;6.870;2023-07-28T02:29:33;4.63;;;1.13;;
9712;SDS011;4895;50.926;6.870;2023-07-28T02:31:58;3.23;;;1.23;;
9712;SDS011;4895;50.926;6.870;2023-07-28T02:34:23;4.10;;;1.30;;
9712;SDS011;4895;50.926;6.870;2023-07-28T02:36:48;6.93;;;1.67;;
9712;SDS011;4895;50.926;6.870;2023-07-28T02:39:14;1.53;;;1.23;;
9712;SDS011;4895;50.926;6.870;2023-07-28T02:41:40;6.07;;;1.40;;
9712;SDS011;4895;50.926;6.870;2023-07-28T02:44:05;3.70;;;1.27;;
9712;SDS011;4895;50.926;6.870;2023-07-28T02:46:30;2.33;;;1.20;;
9712;SDS011;4895;50.926;6.870;2023-07-28T02:48:55;2.10;;;1.27;;
9712;SDS011;4895;50.926;6.870;2023-07-28T02:51:21;7.03;;;1.40;;
9712;SDS011;4895;50.926;6.870;2023-07-28T02:53:46;3.23;;;1.13;;
9712;SDS011;4895;50.926;6.870;2023-07-28T02:56:11;3.73;;;1.20;;
9712;SDS011;4895;50.926;6.870;2023-07-28T02:58:37;4.77;;;1.53;;
9712;SDS011;4895;50.926;6.870;2023-07-28T03:01:02;2.30;;;1.57;;
9712;SDS011;4895;50.926;6.870;2023-07-28T03:03:27;5.00;;;2.20;;
9712;SDS011;4895;50.926;6.870;2023-07-28T03:05:52;5.00;;;2.03;;
9712;SDS011;4895;50.926;6.870;2023-07-28T03:08:18;5.20;;;2.20;;
9712;SDS011;4895;50.926;6.870;2023-07-28T03:10:44;10.70;;;2.00;;
9712;SDS011;4895;50.926;6.870;2023-07-28T03:13:09;8.83;;;1.87;;
9712;SDS011;4895;50.926;6.870;2023-07-28T03:15:34;10.33;;;2.10;;
9712;SDS011;4895;50.926;6.870;2023-07-28T03:17:59;7.03;;;2.17;;
9712;SDS011;4895;50.926;6.870;2023-07-28T03:20:25;2.23;;;1.43;;
9712;SDS011;4895;50.926;6.870;2023-07-28T03:22:50;3.70;;;1.90;;
9712;SDS011;4895;50.926;6.870;2023-07-28T03:25:15;4.03;;;1.90;;
9712;SDS011;4895;50.926;6.870;2023-07-28T03:27:41;8.83;;;2.20;;
9712;SDS011;4895;50.926;6.870;2023-07-28T03:30:06;3.90;;;2.43;;
9712;SDS011;4895;50.926;6.870;2023-07-28T03:32:34;5.73;;;2.00;;
9712;SDS011;4895;50.926;6.870;2023-07-28T03:35:00;8.60;;;2.00;;
9712;SDS011;4895;50.926;6.870;2023-07-28T03:37:25;4.67;;;1.90;;
9712;SDS011;4895;50.926;6.870;2023-07-28T03:39:50;8.03;;;2.47;;
9712;SDS011;4895;50.926;6.870;2023-07-28T03:42:16;10.70;;;2.07;;
9712;SDS011;4895;50.926;6.870;2023-07-28T03:44:41;5.63;;;2.40;;
9712;SDS011;4895;50.926;6.870;2023-07-28T03:47:06;6.07;;;2.37;;
9712;SDS011;4895;50.926;6.870;2023-07-28T03:49:32;7.33;;;2.80;;
9712;SDS011;4895;50.926;6.870;2023-07-28T03:51:57;6.30;;;2.73;;
9712;SDS011;4895;50.926;6.870;2023-07-28T03:54:23;5.90;;;2.23;;
9712;SDS011;4895;50.926;6.870;2023-07-28T03:56:48;4.23;;;2.87;;
9712;SDS011;4895;50.926;6.870;2023-07-28T03:59:13;7.53;;;3.13;;
9712;SDS011;4895;50.926;6.870;2023-07-28T04:01:39;7.30;;;2.77;;
9712;SDS011;4895;50.926;6.870;2023-07-28T04:04:05;5.20;;;2.70;;
9712;SDS011;4895;50.926;6.870;2023-07-28T04:09:06;8.97;;;2.93;;
9712;SDS011;4895;50.926;6.870;2023-07-28T04:11:32;4.53;;;2.67;;
9712;SDS011;4895;50.926;6.870;2023-07-28T04:13:57;8.20;;;2.47;;
9712;SDS011;4895;50.926;6.870;2023-07-28T04:16:22;5.70;;;2.53;;
9712;SDS011;4895;50.926;6.870;2023-07-28T04:18:47;5.30;;;2.30;;
9712;SDS011;4895;50.926;6.870;2023-07-28T04:21:13;5.10;;;2.40;;
9712;SDS011;4895;50.926;6.870;2023-07-28T04:23:38;6.00;;;2.83;;
9712;SDS011;4895;50.926;6.870;2023-07-28T04:26:03;5.93;;;2.33;;
9712;SDS011;4895;50.926;6.870;2023-07-28T04:28:28;5.10;;;2.60;;
9712;SDS011;4895;50.926;6.870;2023-07-28T04:30:54;4.50;;;2.80;;
9712;SDS011;4895;50.926;6.870;2023-07-28T04:33:19;9.30;;;3.53;;
9712;SDS011;4895;50.926;6.870;2023-07-28T04:35:44;5.63;;;2.33;;
9712;SDS011;4895;50.926;6.870;2023-07-28T04:38:09;5.80;;;3.20;;
9712;SDS011;4895;50.926;6.870;2023-07-28T04:40:35;4.73;;;2.57;;
9712;SDS011;4895;50.926;6.870;2023-07-28T04:43:00;7.90;;;3.07;;
9712;SDS011;4895;50.926;6.870;2023-07-28T04:45:25;11.57;;;3.20;;
9712;SDS011;4895;50.926;6.870;2023-07-28T04:47:50;4.10;;;2.33;;
9712;SDS011;4895;50.926;6.870;2023-07-28T04:50:16;5.87;;;3.10;;
9712;SDS011;4895;50.926;6.870;2023-07-28T04:52:41;3.57;;;2.23;;
9712;SDS011;4895;50.926;6.870;2023-07-28T04:55:06;6.00;;;2.87;;
9712;SDS011;4895;50.926;6.870;2023-07-28T04:57:32;5.20;;;2.63;;
9712;SDS011;4895;50.926;6.870;2023-07-28T04:59:57;4.60;;;2.43;;
9712;SDS011;4895;50.926;6.870;2023-07-28T05:02:22;6.43;;;2.13;;
9712;SDS011;4895;50.926;6.870;2023-07-28T05:04:48;3.47;;;2.13;;
9712;SDS011;4895;50.926;6.870;2023-07-28T05:07:13;3.27;;;2.03;;
9712;SDS011;4895;50.926;6.870;2023-07-28T05:09:38;4.23;;;2.10;;
9712;SDS011;4895;50.926;6.870;2023-07-28T05:12:04;5.70;;;1.93;;
9712;SDS011;4895;50.926;6.870;2023-07-28T05:14:29;5.10;;;2.00;;
9712;SDS011;4895;50.926;6.870;2023-07-28T05:16:55;4.37;;;1.60;;
9712;SDS011;4895;50.926;6.870;2023-07-28T05:19:20;3.47;;;2.10;;
9712;SDS011;4895;50.926;6.870;2023-07-28T05:21:45;3.93;;;1.60;;
9712;SDS011;4895;50.926;6.870;2023-07-28T05:24:10;3.20;;;1.23;;
9712;SDS011;4895;50.926;6.870;2023-07-28T05:26:36;7.83;;;1.70;;
9712;SDS011;4895;50.926;6.870;2023-07-28T05:29:01;3.50;;;1.83;;
9712;SDS011;4895;50.926;6.870;2023-07-28T05:31:26;2.17;;;1.60;;
9712;SDS011;4895;50.926;6.870;2023-07-28T05:33:51;5.73;;;2.27;;
9712;SDS011;4895;50.926;6.870;2023-07-28T05:36:18;5.90;;;2.97;;
9712;SDS011;4895;50.926;6.870;2023-07-28T05:38:44;6.53;;;2.70;;
9712;SDS011;4895;50.926;6.870;2023-07-28T05:41:09;2.87;;;2.20;;
9712;SDS011;4895;50.926;6.870;2023-07-28T05:43:34;5.50;;;2.20;;
9712;SDS011;4895;50.926;6.870;2023-07-28T05:46:00;3.70;;;2.33;;
9712;SDS011;4895;50.926;6.870;2023-07-28T05:48:25;3.07;;;2.03;;
9712;SDS011;4895;50.926;6.870;2023-07-28T05:50:51;4.10;;;2.07;;
9712;SDS011;4895;50.926;6.870;2023-07-28T05:53:18;6.63;;;2.03;;
9712;SDS011;4895;50.926;6.870;2023-07-28T05:55:45;3.33;;;1.93;;
9712;SDS011;4895;50.926;6.870;2023-07-28T05:58:11;2.23;;;1.70;;
9712;SDS011;4895;50.926;6.870;2023-07-28T06:00:38;1.70;;;1.50;;
9712;SDS011;4895;50.926;6.870;2023-07-28T06:03:04;2.60;;;1.87;;
9712;SDS011;4895;50.926;6.870;2023-07-28T06:05:29;4.47;;;2.50;;
9712;SDS011;4895;50.926;6.870;2023-07-28T06:07:55;2.83;;;1.73;;
9712;SDS011;4895;50.926;6.870;2023-07-28T06:10:20;4.10;;;2.40;;
9712;SDS011;4895;50.926;6.870;2023-07-28T06:12:45;3.53;;;2.10;;
9712;SDS011;4895;50.926;6.870;2023-07-28T06:15:10;4.43;;;2.00;;
9712;SDS011;4895;50.926;6.870;2023-07-28T06:17:36;4.83;;;1.50;;
9712;SDS011;4895;50.926;6.870;2023-07-28T06:20:01;2.37;;;1.57;;
9712;SDS011;4895;50.926;6.870;2023-07-28T06:22:26;3.83;;;1.77;;
9712;SDS011;4895;50.926;6.870;2023-07-28T06:24:51;2.90;;;1.60;;
9712;SDS011;4895;50.926;6.870;2023-07-28T06:27:17;2.00;;;1.57;;
9712;SDS011;4895;50.926;6.870;2023-07-28T06:29:42;3.57;;;1.70;;
9712;SDS011;4895;50.926;6.870;2023-07-28T06:32:07;2.30;;;1.70;;
9712;SDS011;4895;50.926;6.870;2023-07-28T06:34:33;11.17;;;2.40;;
9712;SDS011;4895;50.926;6.870;2023-07-28T06:36:58;4.37;;;1.80;;
9712;SDS011;4895;50.926;6.870;2023-07-28T06:39:23;3.37;;;2.27;;
9712;SDS011;4895;50.926;6.870;2023-07-28T06:41:49;3.70;;;2.10;;
9712;SDS011;4895;50.926;6.870;2023-07-28T06:44:15;4.47;;;2.30;;
9712;SDS011;4895;50.926;6.870;2023-07-28T06:46:40;4.43;;;2.43;;
9712;SDS011;4895;50.926;6.870;2023-07-28T06:49:05;4.30;;;2.50;;
9712;SDS011;4895;50.926;6.870;2023-07-28T06:51:31;4.43;;;2.60;;
9712;SDS011;4895;50.926;6.870;2023-07-28T06:53:56;4.60;;;3.00;;
9712;SDS011;4895;50.926;6.870;2023-07-28T06:56:21;4.20;;;2.93;;
9712;SDS011;4895;50.926;6.870;2023-07-28T06:58:46;3.23;;;2.93;;
9712;SDS011;4895;50.926;6.870;2023-07-28T07:01:12;10.17;;;6.07;;
9712;SDS011;4895;50.926;6.870;2023-07-28T07:03:37;9.87;;;3.83;;
9712;SDS011;4895;50.926;6.870;2023-07-28T07:06:02;5.83;;;3.67;;
9712;SDS011;4895;50.926;6.870;2023-07-28T07:08:28;10.00;;;3.40;;
9712;SDS011;4895;50.926;6.870;2023-07-28T07:10:53;5.63;;;3.17;;
9712;SDS011;4895;50.926;6.870;2023-07-28T07:13:18;8.63;;;3.93;;
9712;SDS011;4895;50.926;6.870;2023-07-28T07:15:44;4.00;;;3.30;;
9712;SDS011;4895;50.926;6.870;2023-07-28T07:18:10;4.47;;;3.60;;
9712;SDS011;4895;50.926;6.870;2023-07-28T07:20:36;3.87;;;3.03;;
9712;SDS011;4895;50.926;6.870;2023-07-28T07:23:01;4.60;;;3.33;;
9712;SDS011;4895;50.926;6.870;2023-07-28T07:25:27;6.70;;;3.17;;
9712;SDS011;4895;50.926;6.870;2023-07-28T07:27:52;7.47;;;3.53;;
9712;SDS011;4895;50.926;6.870;2023-07-28T07:30:17;8.27;;;3.20;;
9712;SDS011;4895;50.926;6.870;2023-07-28T07:32:43;13.70;;;3.83;;
9712;SDS011;4895;50.926;6.870;2023-07-28T07:35:08;3.87;;;3.10;;
9712;SDS011;4895;50.926;6.870;2023-07-28T07:37:34;5.00;;;3.40;;
9712;SDS011;4895;50.926;6.870;2023-07-28T07:39:59;6.70;;;3.20;;
9712;SDS011;4895;50.926;6.870;2023-07-28T07:42:28;5.33;;;3.80;;
9712;SDS011;4895;50.926;6.870;2023-07-28T07:45:06;5.43;;;4.00;;
9712;SDS011;4895;50.926;6.870;2023-07-28T07:47:32;6.90;;;4.50;;
9712;SDS011;4895;50.926;6.870;2023-07-28T07:49:57;6.90;;;4.70;;
9712;SDS011;4895;50.926;6.870;2023-07-28T07:52:23;4.10;;;3.70;;
9712;SDS011;4895;50.926;6.870;2023-07-28T07:54:48;6.50;;;4.53;;
9712;SDS011;4895;50.926;6.870;2023-07-28T07:57:13;6.83;;;4.03;;
9712;SDS011;4895;50.926;6.870;2023-07-28T07:59:38;10.00;;;3.93;;
9712;SDS011;4895;50.926;6.870;2023-07-28T08:02:04;5.33;;;4.10;;
9712;SDS011;4895;50.926;6.870;2023-07-28T08:04:30;4.40;;;3.87;;
9712;SDS011;4895;50.926;6.870;2023-07-28T08:06:56;5.77;;;4.27;;
9712;SDS011;4895;50.926;6.870;2023-07-28T08:09:21;6.70;;;4.23;;
9712;SDS011;4895;50.926;6.870;2023-07-28T08:11:46;4.53;;;3.70;;
9712;SDS011;4895;50.926;6.870;2023-07-28T08:14:12;4.57;;;3.53;;
9712;SDS011;4895;50.926;6.870;2023-07-28T08:16:37;7.47;;;3.67;;
9712;SDS011;4895;50.926;6.870;2023-07-28T08:19:02;5.53;;;3.30;;
9712;SDS011;4895;50.926;6.870;2023-07-28T08:21:28;3.03;;;2.70;;
9712;SDS011;4895;50.926;6.870;2023-07-28T08:23:53;4.33;;;2.90;;
9712;SDS011;4895;50.926;6.870;2023-07-28T08:26:18;3.23;;;2.70;;
9712;SDS011;4895;50.926;6.870;2023-07-28T08:28:43;6.50;;;2.90;;
9712;SDS011;4895;50.926;6.870;2023-07-28T08:31:09;2.90;;;2.60;;
9712;SDS011;4895;50.926;6.870;2023-07-28T08:33:34;3.03;;;2.53;;
9712;SDS011;4895;50.926;6.870;2023-07-28T08:35:59;2.93;;;2.50;;
9712;SDS011;4895;50.926;6.870;2023-07-28T08:38:25;2.87;;;2.30;;
9712;SDS011;4895;50.926;6.870;2023-07-28T08:40:51;5.47;;;2.40;;
9712;SDS011;4895;50.926;6.870;2023-07-28T08:43:16;2.60;;;1.83;;
9712;SDS011;4895;50.926;6.870;2023-07-28T08:45:42;3.53;;;2.07;;
9712;SDS011;4895;50.926;6.870;2023-07-28T08:48:07;3.23;;;1.73;;
9712;SDS011;4895;50.926;6.870;2023-07-28T08:50:33;2.83;;;1.83;;
9712;SDS011;4895;50.926;6.870;2023-07-28T08:52:58;6.00;;;1.70;;
9712;SDS011;4895;50.926;6.870;2023-07-28T08:55:24;3.27;;;1.60;;
9712;SDS011;4895;50.926;6.870;2023-07-28T08:57:50;2.90;;;1.70;;
9712;SDS011;4895;50.926;6.870;2023-07-28T09:00:15;1.83;;;1.50;;
9712;SDS011;4895;50.926;6.870;2023-07-28T09:02:42;2.30;;;1.40;;
9712;SDS011;4895;50.926;6.870;2023-07-28T09:05:16;2.03;;;1.47;;
9712;SDS011;4895;50.926;6.870;2023-07-28T09:07:44;2.77;;;1.40;;
9712;SDS011;4895;50.926;6.870;2023-07-28T09:10:10;5.43;;;1.40;;
9712;SDS011;4895;50.926;6.870;2023-07-28T09:12:37;1.80;;;1.60;;
9712;SDS011;4895;50.926;6.870;2023-07-28T09:15:09;2.83;;;1.53;;
9712;SDS011;4895;50.926;6.870;2023-07-28T09:17:40;2.47;;;1.80;;
9712;SDS011;4895;50.926;6.870;2023-07-28T09:20:07;1.97;;;1.53;;
9712;SDS011;4895;50.926;6.870;2023-07-28T09:22:34;2.43;;;1.43;;
9712;SDS011;4895;50.926;6.870;2023-07-28T09:25:01;1.97;;;1.50;;
9712;SDS011;4895;50.926;6.870;2023-07-28T09:27:36;2.10;;;1.60;;
9712;SDS011;4895;50.926;6.870;2023-07-28T09:30:03;1.60;;;1.40;;
9712;SDS011;4895;50.926;6.870;2023-07-28T09:32:32;2.50;;;1.50;;
9712;SDS011;4895;50.926;6.870;2023-07-28T09:35:08;2.67;;;1.50;;
9712;SDS011;4895;50.926;6.870;2023-07-28T09:37:39;1.97;;;1.20;;
9712;SDS011;4895;50.926;6.870;2023-07-28T09:40:07;3.17;;;1.37;;
9712;SDS011;4895;50.926;6.870;2023-07-28T09:42:37;2.27;;;1.37;;
9712;SDS011;4895;50.926;6.870;2023-07-28T09:45:03;2.40;;;1.27;;
9712;SDS011;4895;50.926;6.870;2023-07-28T09:47:30;1.97;;;1.20;;
9712;SDS011;4895;50.926;6.870;2023-07-28T09:49:55;2.37;;;1.47;;
9712;SDS011;4895;50.926;6.870;2023-07-28T09:52:23;1.50;;;0.90;;
9712;SDS011;4895;50.926;6.870;2023-07-28T09:54:49;1.70;;;1.20;;
9712;SDS011;4895;50.926;6.870;2023-07-28T09:57:19;1.80;;;1.10;;
9712;SDS011;4895;50.926;6.870;2023-07-28T09:59:45;4.30;;;1.30;;
9712;SDS011;4895;50.926;6.870;2023-07-28T10:02:12;2.40;;;1.20;;
9712;SDS011;4895;50.926;6.870;2023-07-28T10:04:37;1.97;;;1.20;;
9712;SDS011;4895;50.926;6.870;2023-07-28T10:07:06;2.30;;;1.20;;
9712;SDS011;4895;50.926;6.870;2023-07-28T10:09:32;4.50;;;1.00;;
9712;SDS011;4895;50.926;6.870;2023-07-28T10:11:59;2.93;;;1.10;;
9712;SDS011;4895;50.926;6.870;2023-07-28T10:14:34;1.83;;;1.17;;
9712;SDS011;4895;50.926;6.870;2023-07-28T10:17:03;3.60;;;1.17;;
9712;SDS011;4895;50.926;6.870;2023-07-28T10:19:29;2.37;;;1.10;;
9712;SDS011;4895;50.926;6.870;2023-07-28T10:21:59;1.50;;;1.23;;
9712;SDS011;4895;50.926;6.870;2023-07-28T10:27:36;1.37;;;1.13;;
9712;SDS011;4895;50.926;6.870;2023-07-28T10:30:04;2.23;;;1.13;;
9712;SDS011;4895;50.926;6.870;2023-07-28T10:32:36;1.40;;;1.10;;
9712;SDS011;4895;50.926;6.870;2023-07-28T10:35:07;1.80;;;1.40;;
9712;SDS011;4895;50.926;6.870;2023-07-28T10:37:45;2.20;;;1.20;;
9712;SDS011;4895;50.926;6.870;2023-07-28T10:43:02;10.20;;;1.27;;
9712;SDS011;4895;50.926;6.870;2023-07-28T10:45:28;1.60;;;1.30;;
9712;SDS011;4895;50.926;6.870;2023-07-28T10:47:55;2.17;;;1.30;;
9712;SDS011;4895;50.926;6.870;2023-07-28T10:50:22;3.83;;;1.40;;
9712;SDS011;4895;50.926;6.870;2023-07-28T10:52:48;4.23;;;1.13;;
9712;SDS011;4895;50.926;6.870;2023-07-28T10:55:20;2.90;;;1.13;;
9712;SDS011;4895;50.926;6.870;2023-07-28T10:57:47;1.90;;;1.30;;
9712;SDS011;4895;50.926;6.870;2023-07-28T11:00:14;2.10;;;1.03;;
9712;SDS011;4895;50.926;6.870;2023-07-28T11:02:41;1.70;;;1.10;;
9712;SDS011;4895;50.926;6.870;2023-07-28T11:05:11;1.40;;;1.10;;
9712;SDS011;4895;50.926;6.870;2023-07-28T11:07:40;1.70;;;1.10;;
9712;SDS011;4895;50.926;6.870;2023-07-28T11:10:06;3.57;;;1.20;;
9712;SDS011;4895;50.926;6.870;2023-07-28T11:12:32;1.47;;;1.00;;
9712;SDS011;4895;50.926;6.870;2023-07-28T11:14:58;1.87;;;1.20;;
9712;SDS011;4895;50.926;6.870;2023-07-28T11:17:23;5.50;;;1.40;;
9712;SDS011;4895;50.926;6.870;2023-07-28T11:19:49;2.07;;;1.27;;
9712;SDS011;4895;50.926;6.870;2023-07-28T11:22:16;5.40;;;1.27;;
9712;SDS011;4895;50.926;6.870;2023-07-28T11:24:42;1.60;;;1.17;;
9712;SDS011;4895;50.926;6.870;2023-07-28T11:27:07;1.77;;;1.30;;
9712;SDS011;4895;50.926;6.870;2023-07-28T11:29:33;3.60;;;1.23;;
9712;SDS011;4895;50.926;6.870;2023-07-28T11:31:58;1.70;;;1.27;;
9712;SDS011;4895;50.926;6.870;2023-07-28T11:34:24;2.33;;;1.50;;
9712;SDS011;4895;50.926;6.870;2023-07-28T11:36:49;2.47;;;1.23;;
9712;SDS011;4895;50.926;6.870;2023-07-28T11:39:14;1.80;;;1.27;;
9712;SDS011;4895;50.926;6.870;2023-07-28T11:41:41;1.60;;;1.37;;
9712;SDS011;4895;50.926;6.870;2023-07-28T11:44:07;1.50;;;1.20;;
9712;SDS011;4895;50.926;6.870;2023-07-28T11:49:07;1.50;;;1.37;;
9712;SDS011;4895;50.926;6.870;2023-07-28T11:51:38;1.90;;;1.10;;
9712;SDS011;4895;50.926;6.870;2023-07-28T11:54:10;1.57;;;1.30;;
9712;SDS011;4895;50.926;6.870;2023-07-28T11:56:36;2.93;;;1.53;;
9712;SDS011;4895;50.926;6.870;2023-07-28T11:59:01;1.80;;;1.30;;
9712;SDS011;4895;50.926;6.870;2023-07-28T12:01:28;1.70;;;1.20;;
9712;SDS011;4895;50.926;6.870;2023-07-28T12:03:53;4.50;;;1.10;;
9712;SDS011;4895;50.926;6.870;2023-07-28T12:06:18;2.30;;;1.27;;
9712;SDS011;4895;50.926;6.870;2023-07-28T12:08:43;1.60;;;1.30;;
9712;SDS011;4895;50.926;6.870;2023-07-28T12:11:15;2.20;;;1.40;;
9712;SDS011;4895;50.926;6.870;2023-07-28T12:13:51;1.30;;;1.20;;
9712;SDS011;4895;50.926;6.870;2023-07-28T12:16:39;1.80;;;1.30;;
9712;SDS011;4895;50.926;6.870;2023-07-28T12:19:08;1.40;;;1.20;;
9712;SDS011;4895;50.926;6.870;2023-07-28T12:21:34;1.70;;;1.40;;
9712;SDS011;4895;50.926;6.870;2023-07-28T12:23:59;1.50;;;1.30;;
9712;SDS011;4895;50.926;6.870;2023-07-28T12:26:24;5.20;;;1.17;;
9712;SDS011;4895;50.926;6.870;2023-07-28T12:28:50;3.13;;;1.10;;
9712;SDS011;4895;50.926;6.870;2023-07-28T12:31:15;1.93;;;0.90;;
9712;SDS011;4895;50.926;6.870;2023-07-28T12:33:40;1.50;;;1.00;;
9712;SDS011;4895;50.926;6.870;2023-07-28T12:36:05;2.50;;;1.00;;
9712;SDS011;4895;50.926;6.870;2023-07-28T12:38:31;1.40;;;0.90;;
9712;SDS011;4895;50.926;6.870;2023-07-28T12:40:56;2.90;;;1.20;;
9712;SDS011;4895;50.926;6.870;2023-07-28T12:43:22;5.10;;;1.00;;
9712;SDS011;4895;50.926;6.870;2023-07-28T12:45:47;1.77;;;1.20;;
9712;SDS011;4895;50.926;6.870;2023-07-28T12:48:12;2.40;;;1.13;;
9712;SDS011;4895;50.926;6.870;2023-07-28T12:50:38;1.50;;;1.10;;
9712;SDS011;4895;50.926;6.870;2023-07-28T12:53:03;3.20;;;0.90;;
9712;SDS011;4895;50.926;6.870;2023-07-28T12:55:28;1.30;;;1.00;;
9712;SDS011;4895;50.926;6.870;2023-07-28T12:57:54;3.20;;;1.47;;
9712;SDS011;4895;50.926;6.870;2023-07-28T13:00:19;1.67;;;0.90;;
9712;SDS011;4895;50.926;6.870;2023-07-28T13:02:46;2.03;;;1.20;;
9712;SDS011;4895;50.926;6.870;2023-07-28T13:05:12;4.17;;;1.10;;
9712;SDS011;4895;50.926;6.870;2023-07-28T13:07:39;2.60;;;1.03;;
9712;SDS011;4895;50.926;6.870;2023-07-28T13:10:06;1.50;;;1.00;;
9712;SDS011;4895;50.926;6.870;2023-07-28T13:12:33;1.97;;;1.20;;
9712;SDS011;4895;50.926;6.870;2023-07-28T13:14:58;1.67;;;0.93;;
9712;SDS011;4895;50.926;6.870;2023-07-28T13:17:24;1.77;;;1.00;;
9712;SDS011;4895;50.926;6.870;2023-07-28T13:19:49;1.70;;;1.30;;
9712;SDS011;4895;50.926;6.870;2023-07-28T13:22:14;1.57;;;1.10;;
9712;SDS011;4895;50.926;6.870;2023-07-28T13:24:40;1.80;;;1.20;;
9712;SDS011;4895;50.926;6.870;2023-07-28T13:27:06;2.03;;;1.13;;
9712;SDS011;4895;50.926;6.870;2023-07-28T13:29:32;1.20;;;0.83;;
9712;SDS011;4895;50.926;6.870;2023-07-28T13:31:58;1.90;;;1.30;;
9712;SDS011;4895;50.926;6.870;2023-07-28T13:34:27;3.10;;;1.27;;
9712;SDS011;4895;50.926;6.870;2023-07-28T13:36:53;1.40;;;0.93;;
9712;SDS011;4895;50.926;6.870;2023-07-28T13:39:19;2.17;;;1.20;;
9712;SDS011;4895;50.926;6.870;2023-07-28T13:41:44;2.37;;;0.93;;
9712;SDS011;4895;50.926;6.870;2023-07-28T13:44:09;1.67;;;1.13;;
9712;SDS011;4895;50.926;6.870;2023-07-28T13:46:35;1.60;;;1.00;;
9712;SDS011;4895;50.926;6.870;2023-07-28T13:49:01;1.33;;;1.00;;
9712;SDS011;4895;50.926;6.870;2023-07-28T13:51:26;1.60;;;1.00;;
9712;SDS011;4895;50.926;6.870;2023-07-28T13:53:51;1.93;;;1.00;;
9712;SDS011;4895;50.926;6.870;2023-07-28T13:56:17;2.03;;;1.03;;
9712;SDS011;4895;50.926;6.870;2023-07-28T13:58:42;1.60;;;0.97;;
9712;SDS011;4895;50.926;6.870;2023-07-28T14:01:07;3.00;;;1.30;;
9712;SDS011;4895;50.926;6.870;2023-07-28T14:03:32;1.80;;;1.10;;
9712;SDS011;4895;50.926;6.870;2023-07-28T14:05:58;5.57;;;0.87;;
9712;SDS011;4895;50.926;6.870;2023-07-28T14:08:23;1.50;;;0.80;;
9712;SDS011;4895;50.926;6.870;2023-07-28T14:10:48;1.63;;;1.07;;
9712;SDS011;4895;50.926;6.870;2023-07-28T14:13:14;1.00;;;0.60;;
9712;SDS011;4895;50.926;6.870;2023-07-28T14:15:39;1.53;;;0.63;;
9712;SDS011;4895;50.926;6.870;2023-07-28T14:18:04;1.10;;;0.60;;
9712;SDS011;4895;50.926;6.870;2023-07-28T14:20:29;1.20;;;0.70;;
9712;SDS011;4895;50.926;6.870;2023-07-28T14:22:55;1.10;;;0.67;;
9712;SDS011;4895;50.926;6.870;2023-07-28T14:25:20;1.20;;;0.60;;
9712;SDS011;4895;50.926;6.870;2023-07-28T14:27:45;1.30;;;0.70;;
9712;SDS011;4895;50.926;6.870;2023-07-28T14:30:11;3.37;;;1.10;;
9712;SDS011;4895;50.926;6.870;2023-07-28T14:32:36;1.10;;;0.60;;
9712;SDS011;4895;50.926;6.870;2023-07-28T14:35:01;2.47;;;0.70;;
9712;SDS011;4895;50.926;6.870;2023-07-28T14:37:27;2.07;;;0.80;;
9712;SDS011;4895;50.926;6.870;2023-07-28T14:39:52;1.30;;;0.60;;
9712;SDS011;4895;50.926;6.870;2023-07-28T14:42:18;1.20;;;0.60;;
9712;SDS011;4895;50.926;6.870;2023-07-28T14:44:43;2.27;;;0.73;;
9712;SDS011;4895;50.926;6.870;2023-07-28T14:47:08;1.60;;;0.70;;
9712;SDS011;4895;50.926;6.870;2023-07-28T14:49:33;1.10;;;0.50;;
9712;SDS011;4895;50.926;6.870;2023-07-28T14:51:59;5.50;;;0.90;;
9712;SDS011;4895;50.926;6.870;2023-07-28T14:54:24;1.63;;;1.00;;
9712;SDS011;4895;50.926;6.870;2023-07-28T14:56:49;1.83;;;1.00;;
9712;SDS011;4895;50.926;6.870;2023-07-28T14:59:14;1.20;;;0.70;;
9712;SDS011;4895;50.926;6.870;2023-07-28T15:01:40;1.77;;;1.00;;
9712;SDS011;4895;50.926;6.870;2023-07-28T15:04:06;1.63;;;0.90;;
9712;SDS011;4895;50.926;6.870;2023-07-28T15:06:31;1.60;;;0.80;;
9712;SDS011;4895;50.926;6.870;2023-07-28T15:08:57;1.50;;;0.70;;
9712;SDS011;4895;50.926;6.870;2023-07-28T15:11:22;1.67;;;0.70;;
9712;SDS011;4895;50.926;6.870;2023-07-28T15:13:48;1.93;;;0.80;;
9712;SDS011;4895;50.926;6.870;2023-07-28T15:16:14;1.90;;;0.83;;
9712;SDS011;4895;50.926;6.870;2023-07-28T15:18:40;2.20;;;0.80;;
9712;SDS011;4895;50.926;6.870;2023-07-28T15:21:05;2.60;;;1.10;;
9712;SDS011;4895;50.926;6.870;2023-07-28T15:23:30;1.53;;;0.70;;
9712;SDS011;4895;50.926;6.870;2023-07-28T15:25:55;3.10;;;0.90;;
9712;SDS011;4895;50.926;6.870;2023-07-28T15:28:23;2.73;;;1.10;;